createdAt,value
2023-09-17T00:00:06.952Z,6.38
2023-09-17T00:02:33.788Z,5.30
2023-09-17T00:05:00.766Z,5.70
2023-09-17T00:07:27.492Z,6.47
2023-09-17T00:09:54.168Z,7.35
2023-09-17T00:12:20.859Z,6.13
2023-09-17T00:14:47.625Z,6.63
2023-09-17T00:17:14.370Z,5.45
2023-09-17T00:19:41.212Z,7.82
2023-09-17T00:22:10.383Z,6.38
2023-09-17T00:24:37.072Z,6.63
2023-09-17T00:27:04.224Z,6.70
2023-09-17T00:29:30.981Z,4.88
2023-09-17T00:31:57.774Z,6.85
2023-09-17T00:34:24.436Z,7.45
2023-09-17T00:36:51.077Z,7.38
2023-09-17T00:39:18.386Z,6.60
2023-09-17T00:41:45.115Z,5.07
2023-09-17T00:44:12.803Z,7.45
2023-09-17T00:46:39.587Z,8.48
2023-09-17T00:49:06.794Z,9.13
2023-09-17T00:51:33.469Z,6.72
2023-09-17T00:54:00.196Z,6.88
2023-09-17T00:56:26.909Z,6.63
2023-09-17T00:58:53.643Z,7.43
2023-09-17T01:01:20.755Z,6.88
2023-09-17T01:03:47.914Z,5.90
2023-09-17T01:06:14.765Z,6.85
2023-09-17T01:08:42.297Z,5.47
2023-09-17T01:11:10.878Z,6.03
2023-09-17T01:13:41.946Z,6.75
2023-09-17T01:16:08.732Z,5.38
2023-09-17T01:18:35.465Z,4.80
2023-09-17T01:21:06.085Z,7.15
2023-09-17T01:24:03.201Z,5.32
2023-09-17T01:26:29.872Z,6.00
2023-09-17T01:28:57.345Z,7.18
2023-09-17T01:31:24.703Z,6.50
2023-09-17T01:33:51.630Z,6.28
2023-09-17T01:36:34.964Z,5.47
2023-09-17T01:39:23.496Z,6.95
2023-09-17T01:41:50.791Z,8.85
2023-09-17T01:44:17.557Z,7.28
2023-09-17T01:46:44.278Z,6.78
2023-09-17T01:49:13.785Z,5.75
2023-09-17T01:51:40.571Z,5.18
2023-09-17T01:54:07.251Z,4.68
2023-09-17T01:56:35.859Z,6.32
2023-09-17T01:59:02.536Z,4.60
2023-09-17T02:01:29.307Z,5.03
2023-09-17T02:03:56.035Z,5.70
2023-09-17T02:06:22.741Z,5.60
2023-09-17T02:08:49.492Z,5.20
2023-09-17T02:11:16.305Z,5.15
2023-09-17T02:13:42.971Z,6.22
2023-09-17T02:16:10.115Z,8.18
2023-09-17T02:18:36.948Z,5.95
2023-09-17T02:21:03.707Z,4.95
2023-09-17T02:23:30.373Z,5.85
2023-09-17T02:25:57.570Z,6.38
2023-09-17T02:28:25.599Z,6.63
2023-09-17T02:30:52.333Z,6.80
2023-09-17T02:33:19.154Z,5.47
2023-09-17T02:35:45.808Z,7.28
2023-09-17T02:38:12.707Z,5.43
2023-09-17T02:40:39.634Z,6.93
2023-09-17T02:43:06.343Z,8.25
2023-09-17T02:45:33.135Z,6.32
2023-09-17T02:47:59.865Z,5.68
2023-09-17T02:50:26.584Z,6.03
2023-09-17T02:52:53.531Z,5.63
2023-09-17T02:55:20.294Z,6.28
2023-09-17T02:57:46.961Z,5.78
2023-09-17T03:00:14.609Z,5.90
2023-09-17T03:02:41.950Z,5.65
2023-09-17T03:05:11.997Z,4.68
2023-09-17T03:07:39.328Z,7.60
2023-09-17T03:10:08.558Z,4.90
2023-09-17T03:12:35.281Z,5.95
2023-09-17T03:15:02.059Z,5.78
2023-09-17T03:17:28.825Z,6.03
2023-09-17T03:19:55.701Z,5.63
2023-09-17T03:22:22.525Z,4.57
2023-09-17T03:25:03.333Z,5.63
2023-09-17T03:27:31.503Z,7.95
2023-09-17T03:29:58.272Z,5.90
2023-09-17T03:32:24.943Z,5.75
2023-09-17T03:34:51.729Z,5.15
2023-09-17T03:37:18.635Z,5.15
2023-09-17T03:39:49.361Z,6.18
2023-09-17T03:42:16.117Z,5.07
2023-09-17T03:44:42.927Z,4.75
2023-09-17T03:47:10.013Z,6.30
2023-09-17T03:49:36.866Z,6.97
2023-09-17T03:52:05.982Z,4.55
2023-09-17T03:54:33.605Z,6.13
2023-09-17T03:57:00.346Z,5.88
2023-09-17T03:59:27.262Z,5.80
2023-09-17T04:01:54.128Z,5.60
2023-09-17T04:04:20.978Z,6.90
2023-09-17T04:06:47.951Z,4.93
2023-09-17T04:09:14.958Z,8.02
2023-09-17T04:11:41.746Z,5.93
2023-09-17T04:14:09.160Z,9.20
2023-09-17T04:16:35.904Z,5.47
2023-09-17T04:19:02.729Z,7.90
2023-09-17T04:21:29.396Z,6.57
2023-09-17T04:23:56.052Z,11.15
2023-09-17T04:26:25.770Z,7.63
2023-09-17T04:28:53.802Z,6.95
2023-09-17T04:31:20.658Z,6.43
2023-09-17T04:33:47.437Z,7.25
2023-09-17T04:36:14.164Z,10.20
2023-09-17T04:38:40.836Z,6.43
2023-09-17T04:41:07.532Z,6.50
2023-09-17T04:43:34.248Z,6.40
2023-09-17T04:46:01.884Z,5.90
2023-09-17T04:48:28.608Z,6.25
2023-09-17T04:50:55.292Z,6.30
2023-09-17T04:53:22.606Z,6.25
2023-09-17T04:55:49.467Z,5.53
2023-09-17T04:58:17.409Z,6.15
2023-09-17T05:00:45.751Z,8.63
2023-09-17T05:03:13.121Z,7.63
2023-09-17T05:05:39.933Z,6.70
2023-09-17T05:08:07.026Z,6.25
2023-09-17T05:10:33.753Z,5.35
2023-09-17T05:13:01.175Z,5.25
2023-09-17T05:15:27.850Z,4.72
2023-09-17T05:17:54.648Z,7.50
2023-09-17T05:20:22.890Z,6.22
2023-09-17T05:22:49.800Z,4.82
2023-09-17T05:25:16.598Z,5.15
2023-09-17T05:27:43.512Z,4.95
2023-09-17T05:30:10.461Z,5.40
2023-09-17T05:32:37.307Z,9.50
2023-09-17T05:35:04.690Z,7.00
2023-09-17T05:37:32.341Z,6.00
2023-09-17T05:39:59.643Z,7.15
2023-09-17T05:42:26.327Z,5.47
2023-09-17T05:44:53.145Z,6.00
2023-09-17T05:47:19.857Z,6.18
2023-09-17T05:49:46.700Z,7.15
2023-09-17T05:52:13.452Z,5.50
2023-09-17T05:54:40.261Z,4.90
2023-09-17T05:57:06.957Z,8.90
2023-09-17T05:59:33.729Z,5.47
2023-09-17T06:02:00.724Z,5.68
2023-09-17T06:04:27.799Z,6.53
2023-09-17T06:06:54.574Z,10.02
2023-09-17T06:09:21.275Z,7.45
2023-09-17T06:11:51.135Z,6.05
2023-09-17T06:14:18.204Z,6.97
2023-09-17T06:16:56.397Z,6.88
2023-09-17T06:19:24.422Z,7.20
2023-09-17T06:21:51.240Z,6.18
2023-09-17T06:24:17.939Z,5.30
2023-09-17T06:26:44.634Z,5.43
2023-09-17T06:29:11.362Z,7.45
2023-09-17T06:31:38.127Z,5.05
2023-09-17T06:34:05.119Z,4.93
2023-09-17T06:36:31.907Z,7.30
2023-09-17T06:38:58.657Z,4.32
2023-09-17T06:41:25.326Z,5.45
2023-09-17T06:43:52.293Z,6.35
2023-09-17T06:46:19.361Z,5.30
2023-09-17T06:48:46.084Z,5.20
2023-09-17T06:51:12.882Z,5.55
2023-09-17T06:53:39.797Z,7.03
2023-09-17T06:56:06.830Z,4.00
2023-09-17T06:58:33.646Z,4.85
2023-09-17T07:01:00.469Z,4.63
2023-09-17T07:03:27.180Z,4.82
2023-09-17T07:05:53.871Z,5.05
2023-09-17T07:08:20.800Z,6.65
2023-09-17T07:10:48.076Z,4.30
2023-09-17T07:13:14.847Z,4.55
2023-09-17T07:15:41.641Z,4.63
2023-09-17T07:18:11.937Z,5.40
2023-09-17T07:20:38.687Z,5.57
2023-09-17T07:23:05.601Z,5.85
2023-09-17T07:25:35.200Z,5.68
2023-09-17T07:28:08.312Z,6.28
2023-09-17T07:30:36.111Z,6.20
2023-09-17T07:33:06.094Z,4.75
2023-09-17T07:35:33.504Z,4.78
2023-09-17T07:38:03.126Z,3.60
2023-09-17T07:40:29.954Z,4.07
2023-09-17T07:42:56.752Z,4.50
2023-09-17T07:45:23.470Z,5.25
2023-09-17T07:47:50.175Z,3.72
2023-09-17T07:50:17.303Z,5.18
2023-09-17T07:52:44.187Z,3.47
2023-09-17T07:55:10.949Z,3.97
2023-09-17T07:57:37.664Z,4.47
2023-09-17T08:00:05.792Z,4.43
2023-09-17T08:02:32.647Z,3.70
2023-09-17T08:04:59.707Z,3.50
2023-09-17T08:07:26.425Z,4.38
2023-09-17T08:09:53.259Z,4.30
2023-09-17T08:12:19.989Z,4.32
2023-09-17T08:14:47.302Z,4.50
2023-09-17T08:17:14.366Z,4.13
2023-09-17T08:19:41.160Z,3.10
2023-09-17T08:22:07.908Z,5.15
2023-09-17T08:24:34.579Z,3.75
2023-09-17T08:27:01.862Z,3.00
2023-09-17T08:29:29.549Z,4.03
2023-09-17T08:31:56.349Z,3.95
2023-09-17T08:34:23.124Z,5.40
2023-09-17T08:36:49.849Z,3.67
2023-09-17T08:39:16.568Z,4.97
2023-09-17T08:41:44.190Z,4.07
2023-09-17T08:44:10.961Z,6.53
2023-09-17T08:46:38.723Z,3.10
2023-09-17T08:49:05.578Z,3.58
2023-09-17T08:51:35.932Z,3.90
2023-09-17T08:54:06.961Z,4.82
2023-09-17T08:56:35.134Z,4.07
2023-09-17T08:59:05.206Z,3.35
2023-09-17T09:01:32.018Z,4.60
2023-09-17T09:03:58.820Z,3.50
2023-09-17T09:06:25.984Z,3.83
2023-09-17T09:08:53.866Z,4.47
2023-09-17T09:11:20.603Z,4.28
2023-09-17T09:13:48.228Z,4.15
2023-09-17T09:16:15.593Z,3.85
2023-09-17T09:18:42.298Z,3.53
2023-09-17T09:21:11.700Z,3.13
2023-09-17T09:23:38.471Z,4.50
2023-09-17T09:26:07.304Z,3.80
2023-09-17T09:28:34.119Z,3.00
2023-09-17T09:31:00.945Z,5.28
2023-09-17T09:33:28.182Z,3.38
2023-09-17T09:35:56.069Z,3.10
2023-09-17T09:38:22.778Z,3.20
2023-09-17T09:40:49.467Z,3.45
2023-09-17T09:43:43.201Z,3.08
2023-09-17T09:46:10.062Z,4.97
2023-09-17T09:48:40.549Z,3.45
2023-09-17T09:51:07.611Z,3.63
2023-09-17T09:53:34.369Z,4.80
2023-09-17T09:56:01.520Z,5.63
2023-09-17T09:58:28.308Z,5.05
2023-09-17T10:00:55.971Z,3.28
2023-09-17T10:03:23.088Z,7.43
2023-09-17T10:05:50.026Z,4.45
2023-09-17T10:08:18.349Z,2.95
2023-09-17T10:10:45.094Z,3.95
2023-09-17T10:13:12.279Z,3.05
2023-09-17T10:15:40.217Z,4.35
2023-09-17T10:18:08.280Z,14.20
2023-09-17T10:20:34.996Z,3.55
2023-09-17T10:23:01.811Z,3.67
2023-09-17T10:25:29.656Z,3.00
2023-09-17T10:27:56.403Z,3.83
2023-09-17T10:30:23.624Z,4.28
2023-09-17T10:32:51.864Z,3.78
2023-09-17T10:35:18.720Z,3.20
2023-09-17T10:37:47.557Z,4.43
2023-09-17T10:40:14.423Z,3.55
2023-09-17T10:42:41.205Z,3.15
2023-09-17T10:45:11.852Z,3.58
2023-09-17T10:47:40.106Z,2.90
2023-09-17T10:50:07.349Z,3.83
2023-09-17T10:52:35.527Z,4.25
2023-09-17T10:55:02.297Z,3.60
2023-09-17T10:57:44.659Z,4.95
2023-09-17T11:00:15.079Z,3.53
2023-09-17T11:02:48.213Z,5.25
2023-09-17T11:05:16.164Z,3.70
2023-09-17T11:07:43.199Z,4.45
2023-09-17T11:10:25.277Z,3.38
2023-09-17T11:12:58.227Z,3.95
2023-09-17T11:15:24.951Z,3.92
2023-09-17T11:17:51.933Z,4.32
2023-09-17T11:20:22.056Z,3.15
2023-09-17T11:22:51.948Z,3.72
2023-09-17T11:25:38.661Z,4.18
2023-09-17T11:28:12.862Z,3.28
2023-09-17T11:31:06.183Z,3.00
2023-09-17T11:33:33.394Z,4.53
2023-09-17T11:36:00.766Z,4.07
2023-09-17T11:38:28.481Z,3.00
2023-09-17T11:41:05.141Z,3.13
2023-09-17T11:43:32.713Z,4.32
2023-09-17T11:46:00.011Z,4.07
2023-09-17T11:48:27.719Z,4.32
2023-09-17T11:51:06.402Z,3.65
2023-09-17T11:53:33.119Z,4.22
2023-09-17T11:56:03.860Z,3.15
2023-09-17T11:58:33.526Z,5.45
2023-09-17T12:01:06.134Z,3.47
2023-09-17T12:03:32.846Z,3.65
2023-09-17T12:05:59.566Z,4.85
2023-09-17T12:08:26.596Z,3.53
2023-09-17T12:10:58.147Z,4.50
2023-09-17T12:13:24.855Z,4.47
2023-09-17T12:15:52.201Z,3.60
2023-09-17T12:18:20.812Z,3.60
2023-09-17T12:21:00.454Z,5.32
2023-09-17T12:23:42.385Z,3.38
2023-09-17T12:26:09.170Z,3.78
2023-09-17T12:28:35.906Z,4.00
2023-09-17T12:31:03.916Z,4.65
2023-09-17T12:33:31.269Z,4.43
2023-09-17T12:35:57.968Z,5.00
2023-09-17T12:38:24.726Z,4.63
2023-09-17T12:40:52.753Z,5.57
2023-09-17T12:43:19.708Z,5.10
2023-09-17T12:45:46.394Z,3.95
2023-09-17T12:48:13.060Z,3.83
2023-09-17T12:50:44.035Z,4.53
2023-09-17T12:53:11.525Z,3.30
2023-09-17T12:55:38.461Z,3.78
2023-09-17T12:58:08.922Z,3.53
2023-09-17T13:00:35.601Z,3.45
2023-09-17T13:03:28.684Z,6.68
2023-09-17T13:05:58.794Z,4.40
2023-09-17T13:08:26.488Z,5.95
2023-09-17T13:10:56.858Z,3.00
2023-09-17T13:13:23.626Z,3.47
2023-09-17T13:15:50.320Z,3.65
2023-09-17T13:18:17.049Z,3.67
2023-09-17T13:20:43.808Z,4.32
2023-09-17T13:23:10.624Z,3.75
2023-09-17T13:25:37.344Z,3.83
2023-09-17T13:28:20.681Z,4.55
2023-09-17T13:30:48.029Z,4.30
2023-09-17T13:33:15.774Z,4.05
2023-09-17T13:35:44.511Z,3.58
2023-09-17T13:38:14.469Z,4.25
2023-09-17T13:40:48.000Z,4.15
2023-09-17T13:43:15.349Z,4.82
2023-09-17T13:45:55.040Z,3.60
2023-09-17T13:48:23.066Z,5.05
2023-09-17T13:50:50.034Z,5.53
2023-09-17T13:53:16.948Z,3.75
2023-09-17T13:55:43.741Z,4.88
2023-09-17T13:58:11.450Z,3.45
2023-09-17T14:00:38.297Z,3.45
2023-09-17T14:03:08.577Z,3.58
2023-09-17T14:05:35.394Z,2.88
2023-09-17T14:08:02.217Z,3.22
2023-09-17T14:10:29.046Z,3.42
2023-09-17T14:12:55.713Z,3.20
2023-09-17T14:15:22.738Z,4.00
2023-09-17T14:17:52.757Z,3.33
2023-09-17T14:20:21.680Z,4.00
2023-09-17T14:22:48.366Z,4.35
2023-09-17T14:25:15.434Z,4.60
2023-09-17T14:27:42.147Z,4.20
2023-09-17T14:30:13.379Z,3.70
2023-09-17T14:32:41.777Z,5.05
2023-09-17T14:35:09.218Z,4.82
2023-09-17T14:37:36.287Z,3.30
2023-09-17T14:40:03.046Z,5.07
2023-09-17T14:42:29.712Z,3.67
2023-09-17T14:44:56.375Z,3.28
2023-09-17T14:47:23.188Z,4.00
2023-09-17T14:49:50.185Z,4.53
2023-09-17T14:52:16.887Z,3.97
2023-09-17T14:54:43.555Z,3.60
2023-09-17T14:57:10.348Z,3.97
2023-09-17T14:59:37.397Z,4.07
2023-09-17T15:02:05.086Z,4.13
2023-09-17T15:04:32.863Z,4.40
2023-09-17T15:06:59.767Z,4.15
2023-09-17T15:09:27.137Z,3.60
2023-09-17T15:11:54.180Z,3.72
2023-09-17T15:14:20.904Z,3.88
2023-09-17T15:16:47.697Z,4.40
2023-09-17T15:19:14.642Z,3.58
2023-09-17T15:21:41.356Z,3.53
2023-09-17T15:24:08.326Z,5.28
2023-09-17T15:26:34.968Z,4.57
2023-09-17T15:29:01.729Z,3.83
2023-09-17T15:31:28.846Z,4.13
2023-09-17T15:33:55.692Z,3.47
2023-09-17T15:36:22.638Z,3.85
2023-09-17T15:38:49.605Z,3.55
2023-09-17T15:41:17.048Z,4.25
2023-09-17T15:43:43.863Z,3.45
2023-09-17T15:46:10.594Z,3.75
2023-09-17T15:48:37.825Z,3.72
2023-09-17T15:51:07.215Z,4.93
2023-09-17T15:53:33.893Z,3.17
2023-09-17T15:56:00.960Z,3.25
2023-09-17T15:58:27.824Z,4.13
2023-09-17T16:00:54.560Z,4.13
2023-09-17T16:03:21.360Z,3.88
2023-09-17T16:05:48.240Z,4.07
2023-09-17T16:08:15.329Z,3.83
2023-09-17T16:10:42.125Z,5.10
2023-09-17T16:13:08.832Z,3.75
2023-09-17T16:15:35.582Z,3.60
2023-09-17T16:18:03.800Z,4.40
2023-09-17T16:20:30.661Z,4.95
2023-09-17T16:22:57.416Z,5.05
2023-09-17T16:25:24.129Z,3.40
2023-09-17T16:27:50.857Z,3.40
2023-09-17T16:30:17.654Z,3.95
2023-09-17T16:32:44.574Z,3.65
2023-09-17T16:35:11.511Z,4.03
2023-09-17T16:37:38.266Z,3.45
2023-09-17T16:40:05.323Z,4.80
2023-09-17T16:42:31.993Z,4.03
2023-09-17T16:44:58.665Z,4.07
2023-09-17T16:47:25.403Z,4.07
2023-09-17T16:49:52.147Z,3.40
2023-09-17T16:52:20.083Z,3.65
2023-09-17T16:54:48.399Z,4.65
2023-09-17T16:57:16.980Z,5.63
2023-09-17T16:59:43.704Z,5.80
2023-09-17T17:02:10.641Z,4.65
2023-09-17T17:04:37.597Z,3.95
2023-09-17T17:07:05.295Z,5.60
2023-09-17T17:09:32.445Z,4.43
2023-09-17T17:11:59.364Z,4.20
2023-09-17T17:14:26.148Z,4.85
2023-09-17T17:16:52.914Z,4.80
2023-09-17T17:19:19.594Z,6.28
2023-09-17T17:21:46.283Z,6.10
2023-09-17T17:24:13.218Z,5.05
2023-09-17T17:26:39.887Z,5.05
2023-09-17T17:29:06.575Z,4.53
2023-09-17T17:31:33.373Z,5.47
2023-09-17T17:34:00.209Z,5.53
2023-09-17T17:36:26.987Z,4.80
2023-09-17T17:38:54.280Z,6.40
2023-09-17T17:41:21.050Z,6.32
2023-09-17T17:43:47.945Z,5.32
2023-09-17T17:46:15.160Z,5.88
2023-09-17T17:48:42.396Z,5.88
2023-09-17T17:51:09.168Z,6.18
2023-09-17T17:53:37.372Z,6.13
2023-09-17T17:56:07.465Z,6.05
2023-09-17T17:58:35.194Z,4.97
2023-09-17T18:01:01.956Z,8.15
2023-09-17T18:03:28.789Z,5.90
2023-09-17T18:05:58.717Z,5.55
2023-09-17T18:08:26.266Z,4.32
2023-09-17T18:10:53.038Z,5.80
2023-09-17T18:13:19.800Z,5.10
2023-09-17T18:15:46.752Z,7.60
2023-09-17T18:18:13.477Z,6.57
2023-09-17T18:20:41.985Z,6.05
2023-09-17T18:23:08.796Z,5.32
2023-09-17T18:25:39.584Z,5.80
2023-09-17T18:28:09.311Z,6.88
2023-09-17T18:30:37.137Z,7.78
2023-09-17T18:33:04.896Z,5.40
2023-09-17T18:35:31.711Z,6.47
2023-09-17T18:37:58.519Z,5.80
2023-09-17T18:40:25.225Z,9.75
2023-09-17T18:42:52.029Z,5.57
2023-09-17T18:45:18.720Z,6.28
2023-09-17T18:47:45.962Z,5.40
2023-09-17T18:50:12.861Z,6.03
2023-09-17T18:52:39.639Z,5.63
2023-09-17T18:55:06.862Z,5.78
2023-09-17T18:57:33.643Z,5.03
2023-09-17T19:00:00.542Z,5.28
2023-09-17T19:02:27.414Z,6.30
2023-09-17T19:04:54.197Z,7.15
2023-09-17T19:07:20.969Z,7.18
2023-09-17T19:09:47.761Z,4.88
2023-09-17T19:12:14.527Z,7.07
2023-09-17T19:14:41.504Z,6.30
2023-09-17T19:17:09.503Z,6.90
2023-09-17T19:19:36.411Z,6.55
2023-09-17T19:22:10.015Z,6.07
2023-09-17T19:24:37.850Z,7.60
2023-09-17T19:27:04.897Z,7.38
2023-09-17T19:29:31.593Z,6.18
2023-09-17T19:31:58.811Z,5.38
2023-09-17T19:34:25.562Z,5.93
2023-09-17T19:36:52.231Z,7.30
2023-09-17T19:39:19.160Z,7.07
2023-09-17T19:41:46.106Z,6.82
2023-09-17T19:44:15.631Z,9.73
2023-09-17T19:46:42.370Z,7.22
2023-09-17T19:49:09.258Z,5.82
2023-09-17T19:51:37.385Z,7.68
2023-09-17T19:54:06.184Z,6.05
2023-09-17T19:56:34.000Z,5.45
2023-09-17T19:59:01.004Z,5.95
2023-09-17T20:01:28.154Z,5.15
2023-09-17T20:03:56.829Z,6.57
2023-09-17T20:06:25.967Z,5.22
2023-09-17T20:08:55.817Z,5.25
2023-09-17T20:11:22.601Z,5.05
2023-09-17T20:13:49.424Z,7.07
2023-09-17T20:16:16.407Z,6.53
2023-09-17T20:18:43.214Z,5.50
2023-09-17T20:21:11.466Z,6.75
2023-09-17T20:23:39.128Z,6.78
2023-09-17T20:26:15.212Z,6.40
2023-09-17T20:28:41.963Z,5.82
2023-09-17T20:31:08.709Z,6.57
2023-09-17T20:33:35.521Z,5.70
2023-09-17T20:36:02.425Z,5.85
2023-09-17T20:38:29.324Z,6.45
2023-09-17T20:40:58.652Z,5.72
2023-09-17T20:43:25.422Z,6.13
2023-09-17T20:45:52.295Z,7.15
2023-09-17T20:48:19.065Z,8.25
2023-09-17T20:50:45.780Z,8.02
2023-09-17T20:53:12.464Z,6.47
2023-09-17T20:55:39.209Z,7.65
2023-09-17T20:58:05.917Z,6.03
2023-09-17T21:00:33.077Z,7.32
2023-09-17T21:03:01.325Z,6.95
2023-09-17T21:05:28.228Z,6.65
2023-09-17T21:07:54.980Z,6.25
2023-09-17T21:10:22.555Z,6.70
2023-09-17T21:12:49.956Z,6.13
2023-09-17T21:15:16.658Z,10.55
2023-09-17T21:17:45.304Z,6.95
2023-09-17T21:20:20.479Z,7.65
2023-09-17T21:22:49.275Z,8.30
2023-09-17T21:25:17.116Z,8.65
2023-09-17T21:27:45.136Z,7.95
2023-09-17T21:30:13.225Z,9.90
2023-09-17T21:32:40.561Z,8.27
2023-09-17T21:35:08.429Z,8.15
2023-09-17T21:37:35.174Z,9.73
2023-09-17T21:40:01.972Z,9.93
2023-09-17T21:42:28.729Z,8.85
2023-09-17T21:44:55.471Z,10.13
2023-09-17T21:47:22.266Z,9.95
2023-09-17T21:49:49.214Z,9.73
2023-09-17T21:52:15.990Z,9.07
2023-09-17T21:54:42.690Z,12.13
2023-09-17T21:57:17.587Z,10.60
2023-09-17T22:02:10.896Z,9.55
2023-09-17T22:04:37.622Z,9.32
2023-09-17T22:07:04.846Z,8.52
2023-09-17T22:09:31.537Z,9.52
2023-09-17T22:12:00.048Z,10.65
2023-09-17T22:14:26.862Z,8.32
2023-09-17T22:16:53.740Z,9.63
2023-09-17T22:19:20.527Z,9.63
2023-09-17T22:21:47.180Z,9.40
2023-09-17T22:24:14.413Z,10.38
2023-09-17T22:26:41.145Z,7.90
2023-09-17T22:29:07.832Z,9.02
2023-09-17T22:31:34.535Z,9.55
2023-09-17T22:34:01.282Z,9.65
2023-09-17T22:36:28.025Z,11.65
2023-09-17T22:38:55.071Z,9.05
2023-09-17T22:41:26.272Z,9.48
2023-09-17T22:43:59.743Z,12.32
2023-09-17T22:46:32.380Z,11.70
2023-09-17T22:48:59.259Z,10.45
2023-09-17T22:51:30.607Z,9.38
2023-09-17T22:54:00.651Z,10.27
2023-09-17T22:56:27.637Z,10.05
2023-09-17T22:58:54.819Z,11.25
2023-09-17T23:01:21.796Z,11.05
2023-09-17T23:03:48.530Z,13.68
2023-09-17T23:06:15.322Z,10.13
2023-09-17T23:08:42.089Z,9.77
2023-09-17T23:11:09.127Z,10.60
2023-09-17T23:13:36.082Z,12.23
2023-09-17T23:16:02.936Z,11.13
2023-09-17T23:18:29.622Z,10.05
2023-09-17T23:20:56.294Z,10.00
2023-09-17T23:23:23.044Z,10.07
2023-09-17T23:25:51.333Z,11.75
2023-09-17T23:28:17.992Z,13.40
2023-09-17T23:30:44.758Z,12.85
2023-09-17T23:33:12.600Z,14.95
2023-09-17T23:35:40.003Z,13.40
2023-09-17T23:38:06.738Z,12.90
2023-09-17T23:40:33.560Z,13.32
2023-09-17T23:43:00.232Z,16.15
2023-09-17T23:45:27.159Z,14.98
2023-09-17T23:47:54.037Z,14.70
2023-09-17T23:50:20.908Z,15.65
2023-09-17T23:52:48.554Z,13.13
2023-09-17T23:55:15.388Z,15.35
2023-09-17T23:57:42.256Z,14.65
